<?xml version="1.0" encoding="UTF-8"?><gpx version="1.0"><name>FlightAirMap GPX Feed</name><trk><name>AAL2527 American Airlines | N167US A321-232 (A321) | KBOS - KDFW</name><number>1</number><trkseg><trkpt lat="42.357" lon="-71.0088"><ele>12.13</ele><time>2026-04-30T13:24:50+00:00</time></trkpt><trkpt lat="42.2055" lon="-70.7371"><ele>11384.7</ele><time>2026-04-30T13:29:57+00:00</time></trkpt><trkpt lat="42.1718" lon="-71.106"><ele>17323.7</ele><time>2026-04-30T13:35:02+00:00</time></trkpt><trkpt lat="42.2131" lon="-71.8392"><ele>25950.1</ele><time>2026-04-30T13:39:36+00:00</time></trkpt><trkpt lat="42.0347" lon="-72.7914"><ele>34008.3</ele><time>2026-04-30T13:44:41+00:00</time></trkpt><trkpt lat="41.7653" lon="-73.1687"><ele>34002.8</ele><time>2026-04-30T13:49:47+00:00</time></trkpt><trkpt lat="41.3964" lon="-73.7183"><ele>34034.3</ele><time>2026-04-30T13:54:52+00:00</time></trkpt><trkpt lat="41.054" lon="-74.2832"><ele>34026.2</ele><time>2026-04-30T13:59:57+00:00</time></trkpt><trkpt lat="40.7692" lon="-74.8851"><ele>33988.4</ele><time>2026-04-30T14:05:03+00:00</time></trkpt><trkpt lat="40.499" lon="-75.4792"><ele>34041.9</ele><time>2026-04-30T14:09:38+00:00</time></trkpt><trkpt lat="40.2268" lon="-76.0645"><ele>34021.1</ele><time>2026-04-30T14:14:44+00:00</time></trkpt><trkpt lat="39.9568" lon="-76.6438"><ele>34024.1</ele><time>2026-04-30T14:19:48+00:00</time></trkpt><trkpt lat="39.6848" lon="-77.2232"><ele>34024.5</ele><time>2026-04-30T14:24:53+00:00</time></trkpt><trkpt lat="39.4094" lon="-77.799"><ele>34011.5</ele><time>2026-04-30T14:29:58+00:00</time></trkpt><trkpt lat="39.1678" lon="-78.3941"><ele>34014.7</ele><time>2026-04-30T14:34:34+00:00</time></trkpt><trkpt lat="38.9283" lon="-78.9833"><ele>34023.4</ele><time>2026-04-30T14:39:38+00:00</time></trkpt><trkpt lat="38.6497" lon="-80.237"><ele>34021.3</ele><time>2026-04-30T14:49:46+00:00</time></trkpt><trkpt lat="38.5275" lon="-80.8754"><ele>33988.3</ele><time>2026-04-30T14:54:50+00:00</time></trkpt><trkpt lat="38.4018" lon="-81.5118"><ele>34021.3</ele><time>2026-04-30T14:59:55+00:00</time></trkpt><trkpt lat="38.2469" lon="-82.1363"><ele>34022.5</ele><time>2026-04-30T15:05:00+00:00</time></trkpt><trkpt lat="38.0716" lon="-82.7499"><ele>34014.4</ele><time>2026-04-30T15:09:35+00:00</time></trkpt><trkpt lat="37.8937" lon="-83.3576"><ele>34022.8</ele><time>2026-04-30T15:14:42+00:00</time></trkpt><trkpt lat="37.7151" lon="-83.9552"><ele>34033.4</ele><time>2026-04-30T15:19:47+00:00</time></trkpt><trkpt lat="37.5361" lon="-84.5399"><ele>34026.4</ele><time>2026-04-30T15:24:52+00:00</time></trkpt><trkpt lat="37.3577" lon="-85.1133"><ele>33991.9</ele><time>2026-04-30T15:29:56+00:00</time></trkpt><trkpt lat="37.1785" lon="-85.6768"><ele>34016.5</ele><time>2026-04-30T15:35:02+00:00</time></trkpt><trkpt lat="36.9972" lon="-86.2353"><ele>33997.8</ele><time>2026-04-30T15:39:36+00:00</time></trkpt><trkpt lat="36.8045" lon="-86.7887"><ele>34025.4</ele><time>2026-04-30T15:44:41+00:00</time></trkpt><trkpt lat="36.6062" lon="-87.332"><ele>34017.7</ele><time>2026-04-30T15:49:46+00:00</time></trkpt><trkpt lat="36.4089" lon="-87.8631"><ele>34018.9</ele><time>2026-04-30T15:54:50+00:00</time></trkpt><trkpt lat="36.211" lon="-88.3871"><ele>33985.8</ele><time>2026-04-30T15:59:55+00:00</time></trkpt><trkpt lat="36.0116" lon="-88.9064"><ele>34005.2</ele><time>2026-04-30T16:05:00+00:00</time></trkpt><trkpt lat="35.81" lon="-89.4227"><ele>34026.4</ele><time>2026-04-30T16:10:05+00:00</time></trkpt><trkpt lat="35.6052" lon="-89.939"><ele>34021.6</ele><time>2026-04-30T16:14:39+00:00</time></trkpt><trkpt lat="35.397" lon="-90.4556"><ele>33994.2</ele><time>2026-04-30T16:19:44+00:00</time></trkpt><trkpt lat="35.1838" lon="-90.9761"><ele>33984.7</ele><time>2026-04-30T16:24:49+00:00</time></trkpt><trkpt lat="34.9648" lon="-91.5026"><ele>33973.7</ele><time>2026-04-30T16:29:54+00:00</time></trkpt><trkpt lat="34.7416" lon="-92.0308"><ele>34018.4</ele><time>2026-04-30T16:34:58+00:00</time></trkpt><trkpt lat="34.5694" lon="-92.5766"><ele>34016.1</ele><time>2026-04-30T16:39:34+00:00</time></trkpt><trkpt lat="34.4164" lon="-93.1266"><ele>33980</ele><time>2026-04-30T16:44:41+00:00</time></trkpt><trkpt lat="34.2604" lon="-93.6769"><ele>34017.1</ele><time>2026-04-30T16:49:46+00:00</time></trkpt><trkpt lat="34.0962" lon="-94.2262"><ele>34008.5</ele><time>2026-04-30T16:54:51+00:00</time></trkpt><trkpt lat="33.9242" lon="-94.7788"><ele>34015</ele><time>2026-04-30T16:59:56+00:00</time></trkpt><trkpt lat="33.7494" lon="-95.3302"><ele>34004.7</ele><time>2026-04-30T17:05:01+00:00</time></trkpt><trkpt lat="33.5713" lon="-95.8782"><ele>28755.4</ele><time>2026-04-30T17:09:36+00:00</time></trkpt><trkpt lat="33.2818" lon="-96.4853"><ele>17229.9</ele><time>2026-04-30T17:14:41+00:00</time></trkpt><trkpt lat="33.1958" lon="-96.8724"><ele>10707.4</ele><time>2026-04-30T17:19:48+00:00</time></trkpt><trkpt lat="33.0356" lon="-97.054"><ele>3032.57</ele><time>2026-04-30T17:24:54+00:00</time></trkpt><trkpt lat="32.9093" lon="-97.0527"><ele>635.62</ele><time>2026-04-30T17:30:03+00:00</time></trkpt><trkpt lat="32.9068" lon="-97.0358"><ele>635.51</ele><time>2026-04-30T17:34:42+00:00</time></trkpt></trkseg></trk><trk><name>AAL2527 American Airlines | N194UW A321-232 (A321) | KBOS - KDFW</name><number>1</number><trkseg><trkpt lat="42.36" lon="-71.0183"><ele>-8</ele><time>2026-04-29T00:39:58+00:00</time></trkpt><trkpt lat="42.36" lon="-71.0183"><ele>-8</ele><time>2026-04-29T00:44:58+00:00</time></trkpt><trkpt lat="42.36" lon="-71.0183"><ele>-8</ele><time>2026-04-29T00:49:59+00:00</time></trkpt><trkpt lat="42.36" lon="-71.0183"><ele>-8</ele><time>2026-04-29T00:54:59+00:00</time></trkpt><trkpt lat="42.36" lon="-71.0183"><ele>-8</ele><time>2026-04-29T00:57:59+00:00</time></trkpt><trkpt lat="42.36" lon="-71.0183"><ele>-8</ele><time>2026-04-29T00:57:59+00:00</time></trkpt><trkpt lat="42.36" lon="-71.0183"><ele>0</ele><time>2026-04-29T01:09:51+00:00</time></trkpt><trkpt lat="42.36" lon="-71.0183"><ele>0</ele><time>2026-04-29T01:14:51+00:00</time></trkpt><trkpt lat="42.36" lon="-71.0183"><ele>0</ele><time>2026-04-29T01:19:51+00:00</time></trkpt><trkpt lat="42.36" lon="-71.0183"><ele>0</ele><time>2026-04-29T01:24:51+00:00</time></trkpt><trkpt lat="42.3593" lon="-71.0184"><ele>29</ele><time>2026-04-29T01:29:51+00:00</time></trkpt><trkpt lat="42.3589" lon="-71.0152"><ele>26</ele><time>2026-04-29T01:34:52+00:00</time></trkpt><trkpt lat="42.3536" lon="-71.0106"><ele>26</ele><time>2026-04-29T01:40:03+00:00</time></trkpt><trkpt lat="42.3907" lon="-70.7466"><ele>10130</ele><time>2026-04-29T01:44:52+00:00</time></trkpt><trkpt lat="42.2051" lon="-71.2767"><ele>20041</ele><time>2026-04-29T01:49:52+00:00</time></trkpt><trkpt lat="42.2005" lon="-72.0662"><ele>25778</ele><time>2026-04-29T01:54:52+00:00</time></trkpt><trkpt lat="42.0976" lon="-72.8263"><ele>33506</ele><time>2026-04-29T01:59:52+00:00</time></trkpt><trkpt lat="41.6072" lon="-73.3959"><ele>35994</ele><time>2026-04-29T02:04:52+00:00</time></trkpt><trkpt lat="41.176" lon="-74.0455"><ele>36029</ele><time>2026-04-29T02:09:52+00:00</time></trkpt><trkpt lat="40.8371" lon="-74.7407"><ele>36023</ele><time>2026-04-29T02:14:53+00:00</time></trkpt><trkpt lat="40.5176" lon="-75.4386"><ele>36019</ele><time>2026-04-29T02:19:53+00:00</time></trkpt><trkpt lat="40.1966" lon="-76.1287"><ele>36022</ele><time>2026-04-29T02:24:53+00:00</time></trkpt><trkpt lat="39.8843" lon="-76.7993"><ele>36018</ele><time>2026-04-29T02:29:53+00:00</time></trkpt><trkpt lat="39.5746" lon="-77.4547"><ele>36015</ele><time>2026-04-29T02:34:53+00:00</time></trkpt><trkpt lat="39.2851" lon="-78.1022"><ele>36016</ele><time>2026-04-29T02:39:53+00:00</time></trkpt><trkpt lat="39.0214" lon="-78.7556"><ele>36018</ele><time>2026-04-29T02:44:53+00:00</time></trkpt><trkpt lat="38.8002" lon="-79.421"><ele>36009</ele><time>2026-04-29T02:49:53+00:00</time></trkpt><trkpt lat="38.672" lon="-80.1181"><ele>36021</ele><time>2026-04-29T02:54:54+00:00</time></trkpt><trkpt lat="38.5402" lon="-80.8094"><ele>36024</ele><time>2026-04-29T02:59:54+00:00</time></trkpt><trkpt lat="38.4062" lon="-81.4901"><ele>36026</ele><time>2026-04-29T03:04:54+00:00</time></trkpt><trkpt lat="38.2381" lon="-82.1673"><ele>36009</ele><time>2026-04-29T03:09:54+00:00</time></trkpt><trkpt lat="38.0454" lon="-82.8403"><ele>36019</ele><time>2026-04-29T03:14:54+00:00</time></trkpt><trkpt lat="37.8476" lon="-83.5132"><ele>35998</ele><time>2026-04-29T03:19:54+00:00</time></trkpt><trkpt lat="37.6436" lon="-84.1908"><ele>36012</ele><time>2026-04-29T03:24:54+00:00</time></trkpt><trkpt lat="37.434" lon="-84.8693"><ele>36000</ele><time>2026-04-29T03:29:55+00:00</time></trkpt><trkpt lat="37.2186" lon="-85.5518"><ele>36017</ele><time>2026-04-29T03:34:55+00:00</time></trkpt><trkpt lat="37.0034" lon="-86.2165"><ele>36013</ele><time>2026-04-29T03:39:55+00:00</time></trkpt><trkpt lat="36.7779" lon="-86.8624"><ele>36021</ele><time>2026-04-29T03:44:55+00:00</time></trkpt><trkpt lat="36.5435" lon="-87.5017"><ele>36025</ele><time>2026-04-29T03:49:55+00:00</time></trkpt><trkpt lat="36.3065" lon="-88.1352"><ele>36024</ele><time>2026-04-29T03:54:55+00:00</time></trkpt><trkpt lat="36.0663" lon="-88.7649"><ele>36015</ele><time>2026-04-29T03:59:55+00:00</time></trkpt><trkpt lat="35.8221" lon="-89.3921"><ele>36014</ele><time>2026-04-29T04:04:55+00:00</time></trkpt><trkpt lat="35.5752" lon="-90.014"><ele>36011</ele><time>2026-04-29T04:09:55+00:00</time></trkpt><trkpt lat="35.3246" lon="-90.633"><ele>36017</ele><time>2026-04-29T04:14:56+00:00</time></trkpt><trkpt lat="35.0741" lon="-91.2411"><ele>36025</ele><time>2026-04-29T04:19:56+00:00</time></trkpt><trkpt lat="34.8231" lon="-91.8389"><ele>36018</ele><time>2026-04-29T04:24:56+00:00</time></trkpt><trkpt lat="34.6046" lon="-92.4487"><ele>36012</ele><time>2026-04-29T04:29:56+00:00</time></trkpt><trkpt lat="34.4303" lon="-93.0777"><ele>36015</ele><time>2026-04-29T04:34:56+00:00</time></trkpt><trkpt lat="34.2597" lon="-93.6794"><ele>36013</ele><time>2026-04-29T04:39:56+00:00</time></trkpt><trkpt lat="34.0854" lon="-94.261"><ele>36015</ele><time>2026-04-29T04:44:56+00:00</time></trkpt><trkpt lat="33.907" lon="-94.8335"><ele>36020</ele><time>2026-04-29T04:49:56+00:00</time></trkpt><trkpt lat="33.7284" lon="-95.3954"><ele>30498</ele><time>2026-04-29T04:54:56+00:00</time></trkpt><trkpt lat="33.5732" lon="-95.8725"><ele>21844</ele><time>2026-04-29T04:59:57+00:00</time></trkpt><trkpt lat="33.4267" lon="-96.2849"><ele>14331</ele><time>2026-04-29T05:04:57+00:00</time></trkpt><trkpt lat="33.283" lon="-96.6557"><ele>8687</ele><time>2026-04-29T05:09:57+00:00</time></trkpt><trkpt lat="33.1217" lon="-96.8875"><ele>5786</ele><time>2026-04-29T05:14:57+00:00</time></trkpt><trkpt lat="32.7867" lon="-96.8507"><ele>5785</ele><time>2026-04-29T05:19:57+00:00</time></trkpt><trkpt lat="32.5947" lon="-96.9968"><ele>4414</ele><time>2026-04-29T05:24:57+00:00</time></trkpt><trkpt lat="32.8512" lon="-97.055"><ele>1151</ele><time>2026-04-29T05:29:57+00:00</time></trkpt><trkpt lat="32.9102" lon="-97.0509"><ele>575</ele><time>2026-04-29T05:34:57+00:00</time></trkpt><trkpt lat="32.9043" lon="-97.0331"><ele>608</ele><time>2026-04-29T05:39:58+00:00</time></trkpt><trkpt lat="32.8946" lon="-97.0387"><ele>612</ele><time>2026-04-29T05:44:57+00:00</time></trkpt></trkseg></trk></gpx>